Cape Hatteras National Seash, North Carolina
Current Conditions -  °F | °C
As of 11:35 AM on Tuesday 21 Oct 2014 (Local Time) from KMQI Reporting Station
Clear Clear  
Wind Chill: 69°   Ceiling: Unl
Heat Index: 69°   Visibility: 10mi
Dew Point: 56°   Wind: 5mph
Humidity: 62%   Direction: 310°NW
Pressure: 29.9"   Gusts: NA
Location:  35.8834°N, 75.6616°W
Report Text: KMQI 211535Z AUTO 31004KT 10SM CLR 21/13 A2990 RMK AO2 T02060131
Loading
Personal Weather Stations






























Interactive Weather Map New forecast layout! Learn more

10-Day Weather Forecast

Advertisements
Track Severe Weather on mobile